createdAt,value
2023-04-18T19:06:33.987Z,5.22
2023-04-18T19:08:56.179Z,5.88
2023-04-18T19:11:19.233Z,6.90
2023-04-18T19:13:41.533Z,5.68
2023-04-18T19:16:03.672Z,6.07
2023-04-18T19:18:25.905Z,5.30
2023-04-18T19:20:49.562Z,4.78
2023-04-18T19:23:11.728Z,8.05
2023-04-18T19:25:34.611Z,4.53
2023-04-18T19:27:56.711Z,4.80
2023-04-18T19:30:18.878Z,5.80
2023-04-18T19:32:41.073Z,9.57
2023-04-18T19:35:07.016Z,7.53
2023-04-18T19:38:04.528Z,6.03
2023-04-18T19:41:07.674Z,7.20
2023-04-18T19:43:09.280Z,17.60
2023-04-18T19:45:11.959Z,11.32
2023-04-18T19:47:13.487Z,6.60
2023-04-18T19:49:15.223Z,7.97
2023-04-18T19:51:17.021Z,6.22
2023-04-18T19:53:19.120Z,6.55
2023-04-18T19:55:20.708Z,7.50
2023-04-18T19:57:22.213Z,6.18
2023-04-18T19:59:23.736Z,9.68
2023-04-18T20:01:25.806Z,8.02
2023-04-18T20:03:27.727Z,7.65
2023-04-18T20:05:29.397Z,7.32
2023-04-18T20:07:31.052Z,6.93
2023-04-18T20:09:32.550Z,9.57
2023-04-18T20:11:34.509Z,5.78
2023-04-18T20:13:37.377Z,9.30
2023-04-18T20:15:38.887Z,6.85
2023-04-18T20:17:40.310Z,6.15
2023-04-18T20:19:42.163Z,11.98
2023-04-18T20:21:43.700Z,10.55
2023-04-18T20:23:45.703Z,8.55
2023-04-18T20:25:47.286Z,9.10
2023-04-18T20:27:48.738Z,7.72
2023-04-18T20:29:50.311Z,11.57
2023-04-18T20:31:52.195Z,14.30
2023-04-18T20:33:53.678Z,9.40
2023-04-18T20:35:55.251Z,8.23
2023-04-18T20:37:57.731Z,10.98
2023-04-18T20:40:03.119Z,11.80
2023-04-18T20:42:04.671Z,9.23
2023-04-18T20:44:06.529Z,6.70
2023-04-18T20:46:08.161Z,10.32
2023-04-18T20:48:09.651Z,9.70
2023-04-18T20:50:11.260Z,8.30
2023-04-18T20:52:14.300Z,8.30
2023-04-18T20:54:16.241Z,8.65
2023-04-18T20:56:18.228Z,10.27
2023-04-18T20:58:19.912Z,10.55
2023-04-18T21:00:21.845Z,9.65
2023-04-18T21:02:26.424Z,8.57
2023-04-18T21:04:28.237Z,7.55
2023-04-18T21:06:29.797Z,6.65
2023-04-18T21:08:31.719Z,7.68
2023-04-18T21:10:33.247Z,6.30
2023-04-18T21:12:34.756Z,7.85
2023-04-18T21:14:36.353Z,8.35
2023-04-18T21:16:39.669Z,6.80
2023-04-18T21:18:41.304Z,7.97
2023-04-18T21:20:42.716Z,9.23
2023-04-18T21:22:44.304Z,7.93
2023-04-18T21:24:46.794Z,8.02
2023-04-18T21:26:48.281Z,7.47
2023-04-18T21:28:53.850Z,9.00
2023-04-18T21:30:58.100Z,7.55
2023-04-18T21:32:59.565Z,7.75
2023-04-18T21:35:01.481Z,8.55
2023-04-18T21:37:04.149Z,9.13
2023-04-18T21:39:07.530Z,9.23
2023-04-18T21:41:09.242Z,7.43
2023-04-18T21:43:11.274Z,7.28
2023-04-18T21:45:12.773Z,5.55
2023-04-18T21:47:14.255Z,2.13
2023-04-18T21:49:16.026Z,2.08
2023-04-18T21:51:17.764Z,1.90
2023-04-18T21:53:19.156Z,1.85
2023-04-18T21:55:20.773Z,1.60
2023-04-18T21:57:22.164Z,1.63
2023-04-18T21:59:50.212Z,1.92
2023-04-18T22:01:52.049Z,1.00
2023-04-18T22:03:53.699Z,0.70
2023-04-18T22:05:56.685Z,0.60
2023-04-18T22:08:00.002Z,0.40
2023-04-18T22:10:03.544Z,0.57
2023-04-18T22:12:05.517Z,0.50
2023-04-18T22:14:07.533Z,0.50
2023-04-18T22:16:09.364Z,0.43
2023-04-18T22:18:14.422Z,0.30
2023-04-18T22:20:17.418Z,0.30
2023-04-18T22:22:19.031Z,0.40
2023-04-18T22:24:21.864Z,0.30
2023-04-18T22:26:23.788Z,0.30
2023-04-18T22:28:27.961Z,0.20
2023-04-18T22:30:29.975Z,0.30
2023-04-18T22:32:31.466Z,0.20
2023-04-18T22:34:32.867Z,0.30
2023-04-18T22:36:34.651Z,0.20
2023-04-18T22:38:36.231Z,0.30
2023-04-18T22:40:37.701Z,0.35
2023-04-18T22:42:39.195Z,0.20
2023-04-18T22:44:40.797Z,0.30
2023-04-18T22:46:42.584Z,0.28
2023-04-18T22:48:44.942Z,0.30
2023-04-18T22:50:46.444Z,0.65
2023-04-18T22:52:48.150Z,0.20
2023-04-18T22:54:49.614Z,0.30
2023-04-18T22:56:51.196Z,0.40
2023-04-18T22:58:52.717Z,0.20
2023-04-18T23:00:54.274Z,0.20
2023-04-18T23:02:55.883Z,0.30
2023-04-18T23:04:58.992Z,0.30
2023-04-18T23:07:00.370Z,0.20
2023-04-18T23:09:02.449Z,0.20
2023-04-18T23:11:04.065Z,0.20
2023-04-18T23:13:05.781Z,0.30
2023-04-18T23:15:07.937Z,0.20
2023-04-18T23:17:09.386Z,0.28
2023-04-18T23:19:10.815Z,0.20
2023-04-18T23:21:12.501Z,0.20
2023-04-18T23:23:14.055Z,0.20
2023-04-18T23:25:15.672Z,0.30
2023-04-18T23:27:17.168Z,0.20
2023-04-18T23:29:18.575Z,0.28
2023-04-18T23:31:19.991Z,0.20
2023-04-18T23:33:21.412Z,0.40
2023-04-18T23:35:22.903Z,0.20
2023-04-18T23:37:24.307Z,0.20
2023-04-18T23:39:26.220Z,0.32
2023-04-18T23:41:27.694Z,0.20
2023-04-18T23:43:29.065Z,0.20
2023-04-18T23:45:31.016Z,0.20
2023-04-18T23:47:32.698Z,0.30
2023-04-18T23:49:34.194Z,0.20
2023-04-18T23:51:36.172Z,0.20
2023-04-18T23:53:37.628Z,0.20
2023-04-18T23:55:39.072Z,0.20
2023-04-18T23:57:40.713Z,0.20
2023-04-18T23:59:42.128Z,0.20
